SFR161 FALE-FACT
Flight info
| Callsign | SFR161 |
|---|---|
| Flight time | N/A |
| Altitude | 36000 |
| Route | TUBIN1A TUBIN UZ3 ESRUK UQ51 GETEN GETEN1B |
| Aircraft | B738/M-SDE2E3FGHIRWXY/LB1 |
Departure
| Time | 2026-05-06 10:00 |
|---|---|
| Airport | King Shaka International Airport (FALE) |
Arrival
| Time | N/A |
|---|---|
| Airport | Cape Town International Airport (FACT) |
| Time | Latitude | Longitude | Altitude | Speed | Heading |
|---|---|---|---|---|---|
| 2026-05-06 09:31 | -29.61995 | 31.10546 | 295 ft | 0 kts | 307° |
| 2026-05-06 09:52 | -29.62007 | 31.10565 | 300 ft | 4 kts | 307° |
| 2026-05-06 09:52 | -29.62021 | 31.10586 | 297 ft | 4 kts | 294° |
| 2026-05-06 09:52 | -29.62023 | 31.10610 | 298 ft | 4 kts | 234° |
| 2026-05-06 09:52 | -29.62008 | 31.10628 | 299 ft | 1 kts | 219° |
| 2026-05-06 09:53 | -29.62005 | 31.10631 | 299 ft | 0 kts | 219° |
| 2026-05-06 09:56 | -29.62005 | 31.10630 | 295 ft | 1 kts | 219° |
| 2026-05-06 09:56 | -29.62030 | 31.10606 | 299 ft | 7 kts | 219° |
| 2026-05-06 09:56 | -29.62071 | 31.10570 | 295 ft | 7 kts | 218° |
| 2026-05-06 09:56 | -29.62117 | 31.10527 | 295 ft | 12 kts | 219° |
| 2026-05-06 09:57 | -29.62184 | 31.10472 | 295 ft | 12 kts | 216° |
| 2026-05-06 09:57 | -29.62254 | 31.10432 | 299 ft | 11 kts | 174° |
| 2026-05-06 09:57 | -29.62305 | 31.10498 | 297 ft | 11 kts | 127° |
| 2026-05-06 09:57 | -29.62351 | 31.10569 | 295 ft | 11 kts | 127° |
| 2026-05-06 09:58 | -29.62396 | 31.10634 | 297 ft | 8 kts | 129° |
| 2026-05-06 09:58 | -29.62426 | 31.10677 | 296 ft | 8 kts | 128° |
| 2026-05-06 09:58 | -29.62462 | 31.10729 | 297 ft | 8 kts | 128° |
| 2026-05-06 09:58 | -29.62490 | 31.10783 | 296 ft | 8 kts | 93° |
| 2026-05-06 09:59 | -29.62451 | 31.10824 | 296 ft | 8 kts | 33° |
| 2026-05-06 09:59 | -29.62372 | 31.10890 | 299 ft | 32 kts | 37° |
| 2026-05-06 09:59 | -29.61996 | 31.11216 | 298 ft | 102 kts | 36° |
| 2026-05-06 09:59 | -29.61263 | 31.11850 | 311 ft | 158 kts | 37° |
| 2026-05-06 10:00 | -29.60380 | 31.12757 | 658 ft | 180 kts | 40° |
| 2026-05-06 10:00 | -29.59411 | 31.13761 | 1207 ft | 197 kts | 33° |
| 2026-05-06 10:00 | -29.58248 | 31.14687 | 1861 ft | 205 kts | 28° |
| 2026-05-06 10:00 | -29.57099 | 31.15667 | 2560 ft | 205 kts | 25° |
| 2026-05-06 10:01 | -29.55750 | 31.16139 | 2736 ft | 220 kts | 353° |
| 2026-05-06 10:01 | -29.54227 | 31.15412 | 2710 ft | 249 kts | 323° |
| 2026-05-06 10:01 | -29.53001 | 31.14128 | 3863 ft | 237 kts | 310° |
| 2026-05-06 10:01 | -29.51930 | 31.12667 | 4658 ft | 244 kts | 305° |
| 2026-05-06 10:02 | -29.50827 | 31.11107 | 5171 ft | 260 kts | 306° |
| 2026-05-06 10:02 | -29.49661 | 31.09484 | 5863 ft | 266 kts | 308° |
| 2026-05-06 10:02 | -29.48471 | 31.07868 | 6716 ft | 262 kts | 310° |
| 2026-05-06 10:02 | -29.47309 | 31.06315 | 7786 ft | 249 kts | 310° |
| 2026-05-06 10:03 | -29.46188 | 31.04828 | 8824 ft | 244 kts | 311° |
| 2026-05-06 10:03 | -29.45083 | 31.03366 | 9694 ft | 243 kts | 312° |
| 2026-05-06 10:03 | -29.43978 | 31.01859 | 10177 ft | 257 kts | 307° |
| 2026-05-06 10:03 | -29.43296 | 30.99852 | 10397 ft | 287 kts | 284° |
| 2026-05-06 10:04 | -29.43377 | 30.97505 | 11001 ft | 307 kts | 265° |
| 2026-05-06 10:04 | -29.44345 | 30.95226 | 11728 ft | 332 kts | 238° |
| 2026-05-06 10:04 | -29.45927 | 30.93344 | 12687 ft | 332 kts | 232° |
| 2026-05-06 10:04 | -29.47619 | 30.91490 | 13202 ft | 342 kts | 232° |
| 2026-05-06 10:05 | -29.49377 | 30.89599 | 13750 ft | 348 kts | 232° |
| 2026-05-06 10:05 | -29.51159 | 30.87682 | 14318 ft | 353 kts | 233° |
| 2026-05-06 10:05 | -29.52961 | 30.85731 | 14841 ft | 359 kts | 233° |
| 2026-05-06 10:05 | -29.54165 | 30.84420 | 15229 ft | 362 kts | 233° |
| 2026-05-06 10:06 | -29.55997 | 30.82415 | 15823 ft | 366 kts | 234° |
| 2026-05-06 10:06 | -29.57850 | 30.80382 | 16374 ft | 371 kts | 234° |
| 2026-05-06 10:06 | -29.59731 | 30.78309 | 16877 ft | 378 kts | 235° |
| 2026-05-06 10:06 | -29.61642 | 30.76197 | 17343 ft | 385 kts | 236° |
| 2026-05-06 10:07 | -29.63587 | 30.74048 | 17748 ft | 391 kts | 236° |
| 2026-05-06 10:07 | -29.65566 | 30.71859 | 18165 ft | 394 kts | 235° |
| 2026-05-06 10:07 | -29.67558 | 30.69663 | 18502 ft | 397 kts | 236° |
| 2026-05-06 10:07 | -29.69552 | 30.67468 | 19130 ft | 396 kts | 236° |
| 2026-05-06 10:08 | -29.71547 | 30.65263 | 19614 ft | 400 kts | 236° |
| 2026-05-06 10:08 | -29.73568 | 30.63021 | 20060 ft | 405 kts | 236° |
| 2026-05-06 10:08 | -29.75585 | 30.60784 | 20489 ft | 409 kts | 236° |
| 2026-05-06 10:08 | -29.77640 | 30.58506 | 20978 ft | 412 kts | 236° |
| 2026-05-06 10:09 | -29.79717 | 30.56204 | 21430 ft | 415 kts | 236° |
| 2026-05-06 10:09 | -29.81804 | 30.53890 | 21867 ft | 419 kts | 236° |
| 2026-05-06 10:09 | -29.83908 | 30.51559 | 22333 ft | 421 kts | 236° |
| 2026-05-06 10:09 | -29.86033 | 30.49205 | 22787 ft | 424 kts | 236° |
| 2026-05-06 10:10 | -29.88165 | 30.46839 | 23211 ft | 427 kts | 236° |
| 2026-05-06 10:10 | -29.90314 | 30.44454 | 23589 ft | 431 kts | 237° |
| 2026-05-06 10:10 | -29.92462 | 30.42066 | 23891 ft | 436 kts | 236° |
| 2026-05-06 10:10 | -29.94652 | 30.39633 | 24327 ft | 438 kts | 237° |
| 2026-05-06 10:11 | -29.96852 | 30.37189 | 24704 ft | 440 kts | 237° |
| 2026-05-06 10:11 | -29.99063 | 30.34731 | 25074 ft | 442 kts | 237° |
| 2026-05-06 10:11 | -30.01284 | 30.32256 | 25443 ft | 445 kts | 237° |
| 2026-05-06 10:11 | -30.03467 | 30.29739 | 25789 ft | 439 kts | 243° |
| 2026-05-06 10:12 | -30.05104 | 30.26885 | 26092 ft | 421 kts | 253° |
| 2026-05-06 10:12 | -30.06542 | 30.23953 | 26529 ft | 420 kts | 255° |
| 2026-05-06 10:12 | -30.07970 | 30.21005 | 26888 ft | 422 kts | 255° |
| 2026-05-06 10:12 | -30.09412 | 30.18042 | 27219 ft | 425 kts | 254° |
| 2026-05-06 10:13 | -30.10879 | 30.15059 | 27538 ft | 429 kts | 253° |
| 2026-05-06 10:13 | -30.12370 | 30.12058 | 27864 ft | 431 kts | 253° |
| 2026-05-06 10:13 | -30.13856 | 30.09088 | 28273 ft | 432 kts | 253° |
| 2026-05-06 10:13 | -30.15365 | 30.06084 | 28668 ft | 433 kts | 253° |
| 2026-05-06 10:14 | -30.16879 | 30.03066 | 28996 ft | 435 kts | 253° |
| 2026-05-06 10:14 | -30.18400 | 30.00030 | 29291 ft | 437 kts | 253° |
| 2026-05-06 10:14 | -30.19920 | 29.96998 | 29771 ft | 433 kts | 253° |
| 2026-05-06 10:14 | -30.21421 | 29.94013 | 30318 ft | 426 kts | 254° |
| 2026-05-06 10:15 | -30.22907 | 29.91035 | 30479 ft | 430 kts | 254° |
| 2026-05-06 10:15 | -30.24409 | 29.88007 | 30593 ft | 436 kts | 253° |
| 2026-05-06 10:15 | -30.25920 | 29.84976 | 30952 ft | 433 kts | 253° |
| 2026-05-06 10:15 | -30.27422 | 29.81975 | 31469 ft | 428 kts | 253° |
| 2026-05-06 10:16 | -30.28859 | 29.79017 | 31808 ft | 422 kts | 256° |
| 2026-05-06 10:16 | -30.30152 | 29.75975 | 32014 ft | 420 kts | 258° |
| 2026-05-06 10:16 | -30.31375 | 29.72899 | 32212 ft | 421 kts | 258° |
| 2026-05-06 10:16 | -30.32579 | 29.69805 | 32522 ft | 420 kts | 258° |
| 2026-05-06 10:17 | -30.33776 | 29.66731 | 32858 ft | 418 kts | 258° |
| 2026-05-06 10:17 | -30.34977 | 29.63666 | 33174 ft | 418 kts | 258° |
| 2026-05-06 10:17 | -30.36186 | 29.60602 | 33402 ft | 419 kts | 258° |
| 2026-05-06 10:17 | -30.37401 | 29.57533 | 33658 ft | 419 kts | 257° |
| 2026-05-06 10:18 | -30.38624 | 29.54457 | 33900 ft | 419 kts | 258° |
| 2026-05-06 10:18 | -30.39829 | 29.51432 | 34116 ft | 419 kts | 257° |
| 2026-05-06 10:18 | -30.41052 | 29.48359 | 34250 ft | 421 kts | 257° |
| 2026-05-06 10:18 | -30.42277 | 29.45279 | 34466 ft | 420 kts | 257° |
| 2026-05-06 10:19 | -30.43501 | 29.42209 | 34768 ft | 418 kts | 257° |
| 2026-05-06 10:19 | -30.44714 | 29.39166 | 35052 ft | 415 kts | 257° |
| 2026-05-06 10:19 | -30.45921 | 29.36129 | 35258 ft | 414 kts | 257° |
| 2026-05-06 10:19 | -30.47123 | 29.33096 | 35418 ft | 414 kts | 257° |
| 2026-05-06 10:20 | -30.48326 | 29.30058 | 35648 ft | 414 kts | 257° |
| 2026-05-06 10:20 | -30.49525 | 29.27027 | 35738 ft | 415 kts | 257° |
| 2026-05-06 10:20 | -30.51940 | 29.20906 | 35777 ft | 418 kts | 257° |
| 2026-05-06 10:21 | -30.54357 | 29.14793 | 35759 ft | 415 kts | 257° |
| 2026-05-06 10:21 | -30.56738 | 29.08762 | 35748 ft | 411 kts | 257° |
| 2026-05-06 10:22 | -30.59104 | 29.02752 | 35757 ft | 408 kts | 258° |
| 2026-05-06 10:22 | -30.61459 | 28.96749 | 35758 ft | 408 kts | 258° |
| 2026-05-06 10:23 | -30.63823 | 28.90705 | 35777 ft | 415 kts | 257° |
| 2026-05-06 10:23 | -30.66229 | 28.84548 | 35770 ft | 421 kts | 257° |
| 2026-05-06 10:24 | -30.68662 | 28.78332 | 35769 ft | 423 kts | 257° |
| 2026-05-06 10:24 | -30.71106 | 28.72078 | 35757 ft | 424 kts | 257° |
| 2026-05-06 10:25 | -30.73515 | 28.65902 | 35806 ft | 418 kts | 257° |
| 2026-05-06 10:25 | -30.75886 | 28.59817 | 35754 ft | 409 kts | 257° |
| 2026-05-06 10:26 | -30.78223 | 28.53790 | 35751 ft | 407 kts | 257° |
| 2026-05-06 10:26 | -30.80549 | 28.47794 | 35748 ft | 406 kts | 257° |
| 2026-05-06 10:27 | -30.82865 | 28.41812 | 35760 ft | 405 kts | 257° |
| 2026-05-06 10:27 | -30.85184 | 28.35803 | 35808 ft | 407 kts | 257° |
| 2026-05-06 10:28 | -30.87500 | 28.29805 | 35792 ft | 409 kts | 256° |
| 2026-05-06 10:28 | -30.89839 | 28.23739 | 35781 ft | 411 kts | 256° |
| 2026-05-06 10:29 | -30.92177 | 28.17650 | 35799 ft | 412 kts | 257° |
| 2026-05-06 10:29 | -30.94510 | 28.11539 | 35804 ft | 413 kts | 257° |
| 2026-05-06 10:30 | -30.96845 | 28.05408 | 35864 ft | 415 kts | 255° |